Central Sierra Snow Lab Weather observations

Data are for 10 minute period ending at time listed.
 Day   Time    Incoming  Reflected   Ave.   Ave.    Ave.    Vector  Max.    Ave.    Total    Snow   
  of    of      Solar     Solar      Air    Rel.    Wind    Wind    Wind   Baro.   Precip.   Depth  
Year   Day     Radiation Radiation   Temp.  Humid.  Speed   Dir.    Gust   Press.                   
2020   (PST)    Kw/m2     Kw/m2       F       %      mph     deg.    mph     mb.     in.      in.   
----------------------------------------------------------------------------------------------------
 224    0:30    0.000     999.000     55.9     56     2.7      30     5.1   794.70   -2.96   164.60  
 224    0:40    0.000     999.000     55.4     56     1.8      38     4.3   794.70   -2.96   164.70  
 224    0:50    0.000     999.000     55.0     56     3.4      31     4.8   794.60   -2.96   164.60  
 224    1:00    0.000     999.000     54.7     56     1.4      28     3.6   794.60   -2.96   164.70  
 224    1:10    0.000     999.000     54.8     56     2.0      27     4.3   794.60   -2.96   164.70  
 224    1:20    0.000     999.000     53.5     58     2.2      26     4.4   794.60   -2.96   164.70  
 224    1:30    0.000     999.000     52.8     60     2.6      30     4.0   794.50   -2.96   164.70  
 224    1:40    0.000     999.000     52.4     60     3.7      29     4.5   794.40   -2.96   164.80  
 224    1:50    0.000     999.000     51.9     61     2.6      33     3.8   794.30   -2.96   164.80  
 224    2:00    0.000     999.000     51.6     61     3.1      31     4.3   794.30   -2.96   164.80  
 224    2:10    0.000     999.000     51.5     63     4.3      26     4.8   794.30   -2.96   164.80  
 224    2:20    0.000     999.000     51.4     61     1.5      25     4.0   794.30   -2.96   164.80  
 224    2:30    0.000     999.000     51.1     61     2.4      29     3.3   794.30   -2.96   164.80  
 224    2:40    0.000     999.000     51.1     61     3.6      27     4.3   794.30   -2.96   164.80  
 224    2:50    0.000     999.000     51.3     62     4.0      24     5.0   794.30   -2.96   164.80  
 224    3:00    0.000     999.000     51.5     62     4.6      28     5.0   794.30   -2.96   164.80  
 224    3:10    0.000     999.000     51.7     62     4.1      27     4.7   794.30   -2.96   164.80  
 224    3:20    0.000     999.000     52.0     60     4.4      26     5.1   794.20   -2.96   164.80  
 224    3:30    0.000     999.000     52.1     62     2.8      30     5.0   794.20   -2.96   164.70  
 224    3:40    0.000     999.000     51.9     62     1.5      24     2.7   794.20   -2.96   164.70  
 224    3:50    0.000     999.000     51.6     63     3.0      28     3.5   794.20   -2.96   164.80  
 224    4:00    0.000     999.000     51.4     64     3.2      27     4.1   794.20   -2.96   164.80  
 224    4:10    0.000     999.000     51.3     65     3.7      27     4.3   794.20   -2.96   164.80  
 224    4:20    0.000     999.000     51.1     65     2.9      30     3.6   794.20   -2.96   164.80  
 224    4:30    0.000     999.000     50.9     66     2.4      33     3.6   794.20   -2.96   164.80  
 224    4:40    0.000     999.000     50.8     68     2.6      33     3.4   794.30   -2.96   164.80  
 224    4:50    0.000     999.000     50.7     68     3.3      30     4.2   794.20   -2.96   164.80  
 224    5:00    0.000     999.000     50.6     67     3.1      31     4.6   794.30   -2.96   164.80  
 224    5:10    0.001     999.000     50.6     68     2.6      32     4.7   794.30   -2.96   164.80  
 224    5:20    0.002     999.000     50.6     69     3.5      26     4.1   794.40   -2.96   164.80  
 224    5:30    0.005     999.000     50.7     68     2.0      28     4.0   794.40   -2.96   164.80  
 224    5:40    0.011     999.000     50.7     69     2.0      30     4.3   794.50   -2.96   164.80  
 224    5:50    0.022     999.000     50.9     69     1.9      34     4.3   794.40   -2.96   164.80  
 224    6:00    0.025     999.000     51.1     69     1.0      29     3.3   794.50   -2.96   164.80  
 224    6:10    0.020     999.000     51.3     70     2.4      31     3.6   794.50   -2.96   164.80  
 224    6:20    0.022     999.000     51.5     70     3.8      29     4.7   794.50   -2.96   164.80  
 224    6:30    0.021     999.000     51.9     71     2.9      28     4.2   794.60   -2.96   164.80  
 224    6:40    0.025     999.000     52.2     72     1.8      29     3.9   794.60   -2.96   164.80  
 224    6:50    0.037     999.000     53.0     71     2.0      35     4.0   794.70   -2.96   164.80  
 224    7:00    0.048     999.000     54.4     69     2.4      31     3.4   794.70   -2.96   164.70  
 224    7:10    0.070     999.000     56.1     67     2.2      31     3.1   794.70   -2.96   164.70  
 224    7:20    0.116     999.000     58.3     61     1.8      38     2.5   794.80   -2.96   164.60  
 224    7:30    0.325     999.000     60.9     56     1.1      32     1.8   794.70   -2.96   164.60  
 224    7:40    0.344     999.000     63.9     49     0.5      18     1.4   794.80   -2.96   164.60  
 224    7:50    0.326     999.000     64.5     47     0.0      18     0.5   794.70   -2.96   164.20  
 224    8:00    0.448     999.000     65.7     45     0.1      21     1.6   794.70   -2.96   164.20  
 224    8:10    0.510     999.000     67.4     43     0.6     159     2.2   794.70   -2.96   164.20  
 224    8:20    0.538     999.000     68.5     41     1.0     218     4.0   794.60   -2.96   76.40  
 224    8:30    0.544     999.000     69.1     41     1.9     204     6.1   794.60   -2.96   -4.70  
 224    8:40    0.558     999.000     69.3     41     2.3     202     5.1   794.60   -2.96   -4.60  
 224    8:50    0.579     999.000     69.7     42     1.6     221     3.2   794.60   -2.96   -4.80  
 224    9:00    0.604     999.000     70.1     40     2.0     210     5.1   794.60   -2.96   -4.70  
 224    9:10    0.629     999.000     70.6     38     1.9     219     6.4   794.60   -2.96   -4.80  
 224    9:20    0.656     999.000     71.3     36     1.9     226     5.5   794.70   -2.96   -4.70  
 224    9:30    0.693     999.000     71.3     35     2.3     214     6.2   794.70   -2.96   -4.80  
 224    9:40    0.708     999.000     71.7     32     2.0     228     4.7   794.70   -2.96   -4.60  
 224    9:50    0.734     999.000     72.5     29     1.9     232     5.2   794.70   -2.96   -4.60  
 224   10:00    0.756     999.000     72.7     28     2.2     228     6.6   794.80   -2.96   -4.60  
 224   10:10    0.776     999.000     72.3     27     3.6     204     9.0   794.70   -2.96   -4.60  
 224   10:20    0.799     999.000     72.5     26     2.5     220     6.2   794.80   -2.96   -4.50  
 224   10:30    0.811     999.000     73.2     25     2.8     222     7.3   794.80   -2.96   -4.30  
 224   10:40    0.826     999.000     73.7     22     2.5     210     5.0   794.70   -2.96   -4.30  
 224   10:50    0.840     999.000     73.8     21     3.1     198     8.2   794.70   -2.96   -4.20  
 224   11:00    0.847     999.000     74.3     21     3.8     196     9.9   794.70   -2.96   -4.20  
 224   11:10    0.858     999.000     74.2     23     3.3     214     8.5   794.60   -2.96   -4.10  
 224   11:20    0.868     999.000     74.8     25     3.1     212     7.4   794.60   -2.96   -4.30  
 224   11:30    0.875     999.000     75.2     25     3.3     219     8.0   794.60   -2.96   -4.40  
 224   11:40    0.880     999.000     74.6     27     3.9     204     8.6   794.50   -2.96   -4.40  
 224   11:50    0.882     999.000     75.3     27     3.4     208     9.9   794.50   -2.96   -4.60  
 224   12:00    0.886     999.000     74.9     26     3.8     244    11.1   794.40   -2.96   -4.30  
 224   12:10    0.905     999.000     74.8     26     4.1     233    12.4   794.40   -2.96   -4.40  
 224   12:20    0.893     999.000     74.4     22     5.0     236    14.2   794.40   -2.96   -4.10  
 224   12:30    0.898     999.000     74.6     25     4.1     252    16.1   794.30   -2.96   -4.20  
 224   12:40    0.901     999.000     74.7     22     4.6     212    11.8   794.30   -2.96   -4.00  
 224   12:50    0.900     999.000     74.9     21     4.2     217     9.4   794.20   -2.96   -4.00  
 224   13:00    0.893     999.000     75.0     21     3.4     223    10.9   794.10   -2.96   -4.00  
 224   13:10    0.881     999.000     75.5     22     4.1     206     9.1   794.00   -2.96   -4.10  
 224   13:20    0.867     999.000     75.4     25     4.1     240    10.3   794.00   -2.96   -4.10  
 224   13:30    0.860     999.000     75.1     23     3.9     222    10.0   794.10   -2.96   -4.00  
 224   13:40    0.855     999.000     74.4     20     4.5     245    13.0   794.20   -2.96   22.00  
 224   13:50    0.845     999.000     74.1     18     4.9     226    13.9   794.20   -2.96   -0.60  
 224   14:00    0.831     999.000     73.9     21     4.9     223    17.6   794.20   -2.96   21.90  
 224   14:10    0.818     999.000     74.0     22     3.2     240    10.6   794.10   -2.96   -3.80  
 224   14:20    0.800     999.000     74.0     20     4.3     242    11.0   794.10   -2.96   40.20  
 224   14:30    0.778     999.000     74.0     21     4.8     260    15.4   794.10   -2.96   79.70  
 224   14:40    0.755     999.000     73.3     22     3.8     216    10.6   794.10   -2.96   163.50  
 224   14:50    0.729     999.000     73.3     22     3.7     226     9.8   794.10   -2.96   87.40  
 224   15:00    0.705     999.000     73.4     23     3.4     240    11.8   794.10   -2.96   151.30  
 224   15:10    0.679     999.000     73.5     22     3.5     231    10.1   794.00   -2.96   163.50  
 224   15:20    0.654     999.000     74.0     23     3.0     223     8.1   793.90   -2.96   160.80  
 224   15:30    0.625     999.000     73.6     22     4.2     247    10.4   793.90   -2.96   128.80  
 224   15:40    0.597     999.000     73.0     24     3.8     198     9.6   793.80   -2.96   -3.60  
 224   15:50    0.569     999.000     73.8     23     3.3     234     9.0   793.90   -2.96   67.70  
 224   16:00    0.539     999.000     73.2     24     2.9     215     9.1   793.90   -2.96   110.00  
 224   16:10    0.509     999.000     73.1     24     3.0     224     7.1   793.90   -2.96   -3.80  
 224   16:20    0.478     999.000     72.5     25     3.4     199    10.3   793.80   -2.96   -3.70  
 224   16:30    0.447     999.000     72.1     25     3.4     220     9.9   793.80   -2.96   -3.70  
 224   16:40    0.405     999.000     72.1     25     3.3     236     8.6   793.90   -2.96   -3.80  
 224   16:50    0.152     999.000     71.3     26     3.7     212    11.5   793.90   -2.96   -3.70  
 224   17:00    0.145     999.000     72.1     26     2.4     245     8.9   793.90   -2.96   -3.80  
 224   17:10    0.120     999.000     71.3     25     3.2     232     8.8   793.80   -2.96   -3.70  
 224   17:20    0.061     999.000     71.0     26     2.7     219     7.5   793.80   -2.96   -3.70  
 224   17:30    0.059     999.000     70.5     26     2.9     221     7.4   793.80   -2.96   -3.70  
 224   17:40    0.111     999.000     70.2     26     2.2     239     9.7   793.80   -2.96   -3.70  
 224   17:50    0.099     999.000     70.2     26     2.2     219     6.3   793.80   -2.96   -3.60  
 224   18:00    0.059     999.000     69.0     27     2.1     224     8.5   793.90   -2.96   -3.60  
 224   18:10    0.039     999.000     67.7     30     1.4     224     3.8   793.90   -2.96   -3.60  
 224   18:20    0.023     999.000     66.8     30     2.0     222     5.7   794.00   -2.96   96.20  
 224   18:30    0.019     999.000     66.4     29     2.2     222     5.4   794.10   -2.96   164.10  
 224   18:40    0.013     999.000     65.3     31     1.3     221     4.7   794.10   -2.96   164.40  
 224   18:50    0.009     999.000     64.3     33     1.4     215     3.7   794.20   -2.96   164.50  
 224   19:00    0.006     999.000     63.6     34     1.4     214     5.4   794.30   -2.96   164.50  
 224   19:10    0.003     999.000     62.9     36     0.9     246     6.0   794.40   -2.96   164.50  
 224   19:20    0.001     999.000     62.3     38     0.9       7     2.5   794.40   -2.96   164.50  
 224   19:30    0.000     999.000     61.6     40     0.3     352     1.8   794.40   -2.96   164.60  
 224   19:40    0.000     999.000     60.6     42     0.9      54     1.8   794.50   -2.96   164.60  
 224   19:50    0.000     999.000     59.7     44     1.3      61     2.2   794.50   -2.96   164.60  
 224   20:00    0.000     999.000     58.8     46     1.4      33     2.4   794.60   -2.96   164.60  
 224   20:10    0.000     999.000     58.1     47     1.8      31     2.9   794.70   -2.96   164.60  
 224   20:20    0.000     999.000     57.4     49     2.0      28     2.7   794.90   -2.96   164.60  
 224   20:30    0.000     999.000     56.6     50     2.1      23     3.2   795.00   -2.96   164.60  
 224   20:40    0.000     999.000     55.9     52     2.1      21     3.0   795.10   -2.96   164.70  
 224   20:50    0.000     999.000     55.2     53     2.3      26     3.3   795.20   -2.96   164.60  
 224   21:00    0.000     999.000     54.7     55     2.0      22     3.1   795.20   -2.96   164.70  
 224   21:10    0.000     999.000     54.2     56     1.5      27     2.4   795.20   -2.96   164.70  
 224   21:20    0.000     999.000     53.7     57     2.6      25     3.3   795.20   -2.96   164.70  
 224   21:30    0.000     999.000     53.2     58     1.9      31     2.9   795.20   -2.96   164.70  
 224   21:40    0.000     999.000     52.7     59     1.8      32     2.8   795.20   -2.96   164.70  
 224   21:50    0.000     999.000     52.3     60     2.6      29     3.6   795.10   -2.96   164.80  
 224   22:00    0.000     999.000     52.0     60     2.2      27     3.0   795.10   -2.96   164.70  
 224   22:10    0.000     999.000     51.5     61     2.1      32     3.2   795.10   -2.96   164.80  
 224   22:20    0.000     999.000     51.2     62     2.2      27     3.5   795.10   -2.96   164.80  
 224   22:30    0.000     999.000     51.0     62     1.4      37     3.0   795.10   -2.96   164.80  
 224   22:40    0.000     999.000     50.5     63     2.0      34     2.9   795.10   -2.96   164.80  
 224   22:50    0.000     999.000     50.1     63     2.5      35     4.2   795.00   -2.96   164.80  
 224   23:00    0.000     999.000     49.8     63     1.3      38     3.0   795.00   -2.96   164.80  
 224   23:10    0.000     999.000     49.4     63     2.6      32     4.1   795.10   -2.96   164.80  
 224   23:20    0.000     999.000     49.2     63     2.7      30     3.8   795.10   -2.96   164.80  
 224   23:30    0.000     999.000     48.8     64     1.6      39     3.5   795.10   -2.96   164.80  
 224   23:40    0.000     999.000     48.6     63     2.8      32     3.8   795.10   -2.96   164.80  
 224   23:50    0.000     999.000     48.4     63     3.3      32     4.7   795.20   -2.96   164.80  
 225    0:00    0.000     999.000     48.2     63     3.5      31     4.3   795.20   -2.96   164.80  
 225    0:10    0.000     999.000     48.0     63     3.7      30     4.5   795.10   -2.96   164.80  
 225    0:20    0.000     999.000     47.6     63     2.8      34     4.1   795.00   -2.96   164.80  

Return to Central Sierra Snow Lab graphs page.


Western Regional Climate Center,wrcc@dri.edu